LMML/MLA METAR and TAF weather

Enter ICAO airport designator
Station Type Date Time Source
LMML METAR 2020/08/10 19:15 UTC NOAA

LMML 101915Z 36006KT 330V030 CAVOK 27/20 Q1015 NOSIG


Station Type Date Time Source
LMML Decoded METAR 2020/08/10 19:15 UTC NOAA

Luqa, Malta (LMML) 35-51N 014-29E 91M
Aug 10, 2020 - 03:15 PM EDT / 2020.08.10 1915 UTC
Wind: from the N (360 degrees) at 7 MPH (6 KT) (direction variable):0
Visibility: greater than 7 mile(s):0
Temperature: 80 F (27 C)
Dew Point: 68 F (20 C)
Relative Humidity: 65%
Pressure (altimeter): 29.97 in. Hg (1015 hPa)
ob: LMML 101915Z 36006KT 330V030 CAVOK 27/20 Q1015 NOSIG
cycle: 19

Station Type Date Time Source
LMML TAF 2020/08/10 18:46 UTC NOAA

TAF LMML 101700Z 1018/1118 VRB07KT 9999 FEW030

Example: see airport list